createdAt,value
2022-08-23T00:02:01.390Z,19.36
2022-08-23T00:05:09.197Z,19.35
2022-08-23T00:08:13.239Z,19.35
2022-08-23T00:11:33.663Z,19.37
2022-08-23T00:14:40.449Z,19.36
2022-08-23T00:17:46.231Z,19.36
2022-08-23T00:20:49.692Z,19.28
2022-08-23T00:23:52.778Z,19.33
2022-08-23T00:27:07.657Z,19.28
2022-08-23T00:30:13.282Z,19.30
2022-08-23T00:33:17.636Z,19.31
2022-08-23T00:36:20.678Z,19.37
2022-08-23T00:39:24.197Z,19.27
2022-08-23T00:42:53.905Z,19.22
2022-08-23T00:46:22.657Z,19.08
2022-08-23T00:49:26.118Z,19.15
2022-08-23T00:52:35.193Z,19.10
2022-08-23T00:55:39.126Z,19.12
2022-08-23T00:58:43.744Z,19.08
2022-08-23T01:01:46.981Z,18.97
2022-08-23T01:04:55.643Z,18.98
2022-08-23T01:08:01.055Z,19.06
2022-08-23T01:11:11.668Z,19.02
2022-08-23T01:14:26.855Z,19.06
2022-08-23T01:17:37.326Z,18.99
2022-08-23T01:20:47.756Z,18.96
2022-08-23T01:23:56.901Z,18.99
2022-08-23T01:27:00.495Z,18.98
2022-08-23T01:30:06.018Z,18.93
2022-08-23T01:33:11.233Z,18.97
2022-08-23T01:36:18.518Z,19.03
2022-08-23T01:39:25.950Z,19.03
2022-08-23T01:42:29.235Z,19.08
2022-08-23T01:45:33.099Z,19.04
2022-08-23T01:48:36.583Z,19.06
2022-08-23T01:51:40.889Z,18.99
2022-08-23T01:54:46.534Z,18.94
2022-08-23T01:57:54.128Z,18.88
2022-08-23T02:00:57.577Z,18.80
2022-08-23T02:04:04.764Z,18.72
2022-08-23T02:07:08.314Z,18.72
2022-08-23T02:10:12.779Z,18.76
2022-08-23T02:13:16.338Z,18.74
2022-08-23T02:16:26.084Z,18.69
2022-08-23T02:19:32.781Z,18.59
2022-08-23T02:22:39.626Z,18.62
2022-08-23T02:25:44.545Z,18.75
2022-08-23T02:28:51.694Z,18.77
2022-08-23T02:32:00.010Z,18.73
2022-08-23T02:35:05.587Z,18.69
2022-08-23T02:38:13.461Z,18.63
2022-08-23T02:41:18.473Z,18.59
2022-08-23T02:44:22.546Z,18.60
2022-08-23T02:47:26.021Z,18.58
2022-08-23T02:50:42.958Z,18.67
2022-08-23T02:53:48.605Z,18.74
2022-08-23T02:56:54.333Z,18.67
2022-08-23T02:59:58.009Z,18.61
2022-08-23T03:03:01.278Z,18.54
2022-08-23T03:06:25.623Z,18.59
2022-08-23T03:09:27.523Z,18.61
2022-08-23T03:12:33.689Z,18.59
2022-08-23T03:15:37.144Z,18.66
2022-08-23T03:18:41.160Z,18.69
2022-08-23T03:21:44.251Z,18.60
2022-08-23T03:24:48.494Z,18.67
2022-08-23T03:27:55.162Z,18.69
2022-08-23T03:30:58.815Z,18.74
2022-08-23T03:34:01.804Z,18.73
2022-08-23T03:37:06.509Z,18.72
2022-08-23T03:40:11.962Z,18.71
2022-08-23T03:43:16.629Z,18.63
2022-08-23T03:46:23.891Z,18.55
2022-08-23T03:49:31.969Z,18.60
2022-08-23T03:52:35.060Z,18.67
2022-08-23T03:55:42.358Z,18.65
2022-08-23T03:58:51.073Z,18.63
2022-08-23T04:01:55.132Z,18.57
2022-08-23T04:04:58.517Z,18.53
2022-08-23T04:08:33.289Z,18.53
2022-08-23T04:11:37.084Z,18.60
2022-08-23T04:14:45.537Z,18.56
2022-08-23T04:17:48.692Z,18.50
2022-08-23T04:20:53.041Z,18.48
2022-08-23T04:23:58.872Z,18.47
2022-08-23T04:27:02.195Z,18.59
2022-08-23T04:30:08.475Z,18.64
2022-08-23T04:33:15.152Z,18.72
2022-08-23T04:36:21.052Z,18.63
2022-08-23T04:39:26.881Z,18.55
2022-08-23T04:42:32.211Z,18.52
2022-08-23T04:45:39.444Z,18.62
2022-08-23T04:48:45.158Z,18.56
2022-08-23T04:51:53.507Z,18.65
2022-08-23T04:54:57.581Z,18.67
2022-08-23T04:58:18.257Z,18.66
2022-08-23T05:01:24.676Z,18.66
2022-08-23T05:04:29.382Z,18.65
2022-08-23T05:07:42.678Z,18.70
2022-08-23T05:10:47.168Z,18.71
2022-08-23T05:13:51.450Z,18.72
2022-08-23T05:16:57.430Z,18.79
2022-08-23T05:20:01.608Z,18.83
2022-08-23T05:23:05.699Z,18.71
2022-08-23T05:26:12.642Z,18.76
2022-08-23T05:29:18.588Z,18.75
2022-08-23T05:32:30.410Z,18.76
2022-08-23T05:35:36.252Z,18.75
2022-08-23T05:38:40.612Z,18.76
2022-08-23T05:41:45.446Z,18.78
2022-08-23T05:44:48.502Z,18.77
2022-08-23T05:47:55.739Z,18.80
2022-08-23T05:51:15.455Z,18.79
2022-08-23T05:54:18.576Z,18.85
2022-08-23T05:57:27.010Z,18.82
2022-08-23T06:00:37.403Z,18.76
2022-08-23T06:03:45.073Z,18.81
2022-08-23T06:06:48.503Z,18.88
2022-08-23T06:09:51.645Z,18.92
2022-08-23T06:12:54.706Z,18.98
2022-08-23T06:15:58.613Z,18.91
2022-08-23T06:19:05.151Z,18.96
2022-08-23T06:22:23.387Z,19.00
2022-08-23T06:25:26.790Z,19.03
2022-08-23T06:28:36.531Z,19.10
2022-08-23T06:31:55.863Z,19.22
2022-08-23T06:35:33.314Z,19.27
2022-08-23T06:38:47.363Z,19.35
2022-08-23T06:42:37.696Z,19.38
2022-08-23T06:45:39.890Z,19.48
2022-08-23T06:48:45.671Z,19.46
2022-08-23T06:51:53.280Z,19.54
2022-08-23T06:55:08.601Z,19.69
2022-08-23T06:58:28.380Z,19.75
2022-08-23T07:01:47.575Z,19.85
2022-08-23T07:04:55.645Z,19.89
2022-08-23T07:08:21.774Z,19.91
2022-08-23T07:11:25.347Z,20.00
2022-08-23T07:14:29.642Z,19.99
2022-08-23T07:17:32.623Z,19.98
2022-08-23T07:20:35.791Z,20.11
2022-08-23T07:23:46.420Z,20.17
2022-08-23T07:26:52.046Z,20.27
2022-08-23T07:29:55.310Z,20.26
2022-08-23T07:32:58.888Z,20.27
2022-08-23T07:36:08.791Z,20.40
2022-08-23T07:39:15.528Z,20.48
2022-08-23T07:42:23.559Z,20.53
2022-08-23T07:45:29.310Z,20.57
2022-08-23T07:48:53.456Z,20.70
2022-08-23T07:52:01.273Z,20.75
2022-08-23T07:55:06.991Z,20.73
2022-08-23T07:58:28.604Z,20.83
2022-08-23T08:01:46.691Z,20.77
2022-08-23T08:04:49.946Z,20.85
2022-08-23T08:07:53.478Z,20.86
2022-08-23T08:10:58.787Z,21.02
2022-08-23T08:14:05.413Z,20.98
2022-08-23T08:17:09.377Z,21.02
2022-08-23T08:20:35.187Z,21.10
2022-08-23T08:23:58.681Z,21.27
2022-08-23T08:27:12.920Z,21.33
2022-08-23T08:30:16.074Z,21.48
2022-08-23T08:33:19.776Z,21.48
2022-08-23T08:36:38.001Z,21.53
2022-08-23T08:39:46.277Z,21.65
2022-08-23T08:43:11.411Z,21.71
2022-08-23T08:46:22.982Z,21.82
2022-08-23T08:49:38.227Z,21.92
2022-08-23T08:52:46.634Z,21.85
2022-08-23T08:56:02.987Z,21.83
2022-08-23T08:59:17.002Z,21.88
2022-08-23T09:02:33.238Z,21.93
2022-08-23T09:05:48.487Z,21.82
2022-08-23T09:09:08.798Z,22.01
2022-08-23T09:12:37.660Z,22.16
2022-08-23T09:15:49.594Z,22.29
2022-08-23T09:18:54.604Z,22.42
2022-08-23T09:22:01.862Z,22.34
2022-08-23T09:25:10.815Z,22.23
2022-08-23T09:28:24.923Z,22.12
2022-08-23T09:31:44.110Z,22.02
2022-08-23T09:34:50.090Z,22.09
2022-08-23T09:38:00.236Z,22.21
2022-08-23T09:41:19.166Z,22.23
2022-08-23T09:44:39.278Z,22.26
2022-08-23T09:47:46.917Z,22.24
2022-08-23T09:50:55.260Z,22.16
2022-08-23T09:54:11.574Z,22.19
2022-08-23T09:57:24.377Z,22.35
2022-08-23T10:00:32.480Z,22.36
2022-08-23T10:03:37.114Z,22.45
2022-08-23T10:06:53.016Z,22.53
2022-08-23T10:10:23.272Z,22.64
2022-08-23T10:13:27.731Z,22.65
2022-08-23T10:16:42.047Z,22.69
2022-08-23T10:19:55.833Z,22.77
2022-08-23T10:23:15.431Z,22.76
2022-08-23T10:26:29.057Z,22.72
2022-08-23T10:29:41.061Z,22.76
2022-08-23T10:33:07.247Z,22.88
2022-08-23T10:36:24.519Z,23.03
2022-08-23T10:39:30.851Z,23.28
2022-08-23T10:42:44.647Z,23.34
2022-08-23T10:45:50.157Z,23.18
2022-08-23T10:49:04.132Z,23.33
2022-08-23T10:52:15.086Z,23.43
2022-08-23T10:55:36.825Z,23.52
2022-08-23T10:58:47.677Z,23.26
2022-08-23T11:02:00.856Z,23.40
2022-08-23T11:05:23.955Z,23.48
2022-08-23T11:08:47.485Z,23.55
2022-08-23T11:12:20.166Z,23.58
2022-08-23T11:15:44.542Z,23.70
2022-08-23T11:18:51.211Z,23.60
2022-08-23T11:22:16.175Z,23.62
2022-08-23T11:25:43.752Z,23.69
2022-08-23T11:28:48.013Z,23.53
2022-08-23T11:32:03.279Z,23.80
2022-08-23T11:35:30.664Z,23.69
2022-08-23T11:39:09.475Z,23.62
2022-08-23T11:42:20.344Z,23.48
2022-08-23T11:45:33.331Z,23.48
2022-08-23T11:48:43.383Z,23.59
2022-08-23T11:51:57.876Z,23.67
2022-08-23T11:55:26.174Z,23.94
2022-08-23T11:58:53.731Z,24.34
2022-08-23T12:02:00.430Z,24.41
2022-08-23T12:05:21.363Z,24.90
2022-08-23T12:08:55.745Z,25.41
2022-08-23T12:12:28.649Z,25.40
2022-08-23T12:19:06.874Z,25.38
2022-08-23T12:22:16.421Z,25.55
2022-08-23T12:25:22.094Z,25.45
2022-08-23T12:28:39.409Z,25.26
2022-08-23T12:31:53.239Z,25.26
2022-08-23T12:35:18.901Z,25.44
2022-08-23T12:38:36.408Z,25.69
2022-08-23T12:41:56.294Z,25.65
2022-08-23T12:45:05.672Z,26.13
2022-08-23T12:48:12.467Z,25.81
2022-08-23T12:51:17.255Z,26.00
2022-08-23T12:54:25.069Z,26.58
2022-08-23T12:57:35.979Z,26.97
2022-08-23T13:00:43.629Z,26.32
2022-08-23T13:03:54.148Z,26.17
2022-08-23T13:07:04.704Z,26.12
2022-08-23T13:10:09.797Z,26.65
2022-08-23T13:13:16.031Z,26.98
2022-08-23T13:16:30.500Z,27.15
2022-08-23T13:19:33.963Z,27.39
2022-08-23T13:22:40.615Z,27.70
2022-08-23T13:25:44.107Z,28.10
2022-08-23T13:29:03.847Z,27.43
2022-08-23T13:32:06.994Z,27.30
2022-08-23T13:35:34.120Z,27.75
2022-08-23T13:38:38.965Z,27.82
2022-08-23T13:41:45.111Z,27.74
2022-08-23T13:44:48.895Z,27.58
2022-08-23T13:47:58.250Z,26.91
2022-08-23T13:51:24.597Z,27.43
2022-08-23T13:54:31.547Z,27.70
2022-08-23T13:57:37.155Z,27.46
2022-08-23T14:00:45.819Z,27.17
2022-08-23T14:03:59.060Z,26.61
2022-08-23T14:07:02.931Z,27.21
2022-08-23T14:10:10.157Z,27.27
2022-08-23T14:13:15.331Z,26.86
2022-08-23T14:16:33.491Z,26.60
2022-08-23T14:23:08.702Z,27.09
2022-08-23T14:26:21.870Z,26.72
2022-08-23T14:29:29.100Z,26.27
2022-08-23T14:32:33.281Z,26.11
2022-08-23T14:35:37.599Z,25.90
2022-08-23T14:38:43.094Z,25.99
2022-08-23T14:41:52.139Z,26.50
2022-08-23T14:44:55.677Z,26.33
2022-08-23T14:47:58.977Z,26.24
2022-08-23T14:51:02.793Z,26.40
2022-08-23T14:54:08.839Z,26.67
2022-08-23T14:57:13.597Z,27.05
2022-08-23T15:00:18.032Z,27.28
2022-08-23T15:03:26.271Z,28.07
2022-08-23T15:07:06.990Z,27.99
2022-08-23T15:10:11.005Z,27.65
2022-08-23T15:13:22.924Z,26.72
2022-08-23T15:16:33.496Z,26.93
2022-08-23T15:19:37.113Z,26.85
2022-08-23T15:22:55.326Z,26.92
2022-08-23T15:26:00.152Z,26.77
2022-08-23T15:29:05.608Z,27.15
2022-08-23T15:32:10.525Z,27.52
2022-08-23T15:35:16.227Z,27.62
2022-08-23T15:38:23.006Z,27.55
2022-08-23T15:41:28.209Z,27.53
2022-08-23T15:44:33.482Z,28.06
2022-08-23T15:47:48.162Z,27.71
2022-08-23T15:50:52.562Z,27.56
2022-08-23T15:53:57.922Z,27.11
2022-08-23T15:57:01.835Z,27.04
2022-08-23T16:00:10.655Z,26.45
2022-08-23T16:03:19.016Z,26.66
2022-08-23T16:06:24.941Z,26.30
2022-08-23T16:09:29.383Z,26.01
2022-08-23T16:12:34.087Z,25.95
2022-08-23T16:15:40.754Z,25.92
2022-08-23T16:18:44.259Z,25.85
2022-08-23T16:21:47.716Z,25.75
2022-08-23T16:24:50.856Z,25.61
2022-08-23T16:27:54.051Z,25.54
2022-08-23T16:30:58.412Z,25.41
2022-08-23T16:34:03.880Z,25.33
2022-08-23T16:37:09.623Z,25.35
2022-08-23T16:40:13.427Z,25.22
2022-08-23T16:43:16.490Z,25.18
2022-08-23T16:46:23.065Z,25.07
2022-08-23T16:49:26.154Z,24.93
2022-08-23T16:52:34.676Z,24.93
2022-08-23T16:55:39.554Z,25.01
2022-08-23T16:58:43.333Z,24.94
2022-08-23T17:01:51.561Z,24.77
2022-08-23T17:04:54.703Z,24.80
2022-08-23T17:07:58.903Z,24.85
2022-08-23T17:11:03.290Z,24.87
2022-08-23T17:14:06.762Z,24.80
2022-08-23T17:17:11.505Z,24.62
2022-08-23T17:20:20.142Z,24.54
2022-08-23T17:23:23.591Z,24.53
2022-08-23T17:26:26.723Z,24.64
2022-08-23T17:29:34.535Z,24.41
2022-08-23T17:32:43.146Z,24.36
2022-08-23T17:35:46.431Z,24.35
2022-08-23T17:38:49.426Z,24.53
2022-08-23T17:41:52.558Z,24.53
2022-08-23T17:44:55.546Z,24.43
2022-08-23T17:48:00.201Z,24.39
2022-08-23T17:51:03.858Z,24.22
2022-08-23T17:54:08.077Z,24.12
2022-08-23T17:57:13.937Z,24.16
2022-08-23T18:00:50.150Z,24.12
2022-08-23T18:04:00.355Z,24.01
2022-08-23T18:07:50.566Z,24.03
2022-08-23T18:11:45.467Z,23.92
2022-08-23T18:15:12.338Z,23.88
2022-08-23T18:18:52.027Z,23.86
2022-08-23T18:22:10.105Z,23.62
2022-08-23T18:25:16.894Z,23.65
2022-08-23T18:28:20.739Z,23.57
2022-08-23T18:31:23.837Z,23.52
2022-08-23T18:34:27.767Z,23.39
2022-08-23T18:37:32.392Z,23.40
2022-08-23T18:40:45.150Z,23.43
2022-08-23T18:43:49.100Z,23.21
2022-08-23T18:46:52.579Z,23.13
2022-08-23T18:49:55.699Z,23.10
2022-08-23T18:53:01.202Z,23.06
2022-08-23T18:56:05.311Z,23.05
2022-08-23T18:59:08.288Z,22.90
2022-08-23T19:02:11.389Z,22.78
2022-08-23T19:05:14.694Z,22.76
2022-08-23T19:08:19.369Z,22.77
2022-08-23T19:11:24.437Z,22.70
2022-08-23T19:14:28.162Z,22.58
2022-08-23T19:17:31.153Z,22.60
2022-08-23T19:20:35.331Z,22.57
2022-08-23T19:23:39.644Z,22.50
2022-08-23T19:26:47.233Z,22.48
2022-08-23T19:29:50.885Z,22.38
2022-08-23T19:32:54.920Z,22.38
2022-08-23T19:35:58.636Z,22.40
2022-08-23T19:39:03.446Z,22.29
2022-08-23T19:42:11.579Z,22.19
2022-08-23T19:45:16.129Z,22.08
2022-08-23T19:48:20.258Z,22.16
2022-08-23T19:51:24.662Z,22.18
2022-08-23T19:54:29.497Z,22.06
2022-08-23T19:57:33.941Z,22.04
2022-08-23T20:00:38.292Z,22.04
2022-08-23T20:03:41.854Z,21.92
2022-08-23T20:06:44.875Z,21.89
2022-08-23T20:09:49.214Z,21.81
2022-08-23T20:12:52.196Z,21.85
2022-08-23T20:15:56.409Z,21.83
2022-08-23T20:19:01.246Z,21.75
2022-08-23T20:22:23.620Z,21.78
2022-08-23T20:25:29.126Z,21.69
2022-08-23T20:28:32.301Z,21.61
2022-08-23T20:31:39.261Z,21.64
2022-08-23T20:34:42.655Z,21.57
2022-08-23T20:37:45.726Z,21.51
2022-08-23T20:40:50.065Z,21.52
2022-08-23T20:43:57.091Z,21.53
2022-08-23T20:47:03.085Z,21.39
2022-08-23T20:50:07.675Z,21.36
2022-08-23T20:53:12.731Z,21.37
2022-08-23T20:56:17.730Z,21.39
2022-08-23T20:59:23.526Z,21.22
2022-08-23T21:02:27.013Z,21.17
2022-08-23T21:05:30.015Z,21.17
2022-08-23T21:08:33.317Z,21.08
2022-08-23T21:11:40.263Z,21.11
2022-08-23T21:14:43.361Z,21.10
2022-08-23T21:17:47.804Z,21.10
2022-08-23T21:20:51.261Z,20.97
2022-08-23T21:23:55.303Z,20.87
2022-08-23T21:26:59.781Z,20.94
2022-08-23T21:30:03.238Z,20.88
2022-08-23T21:33:07.760Z,20.86
2022-08-23T21:36:12.284Z,20.88
2022-08-23T21:39:15.290Z,20.84
2022-08-23T21:42:23.650Z,20.71
2022-08-23T21:45:27.571Z,20.63
2022-08-23T21:48:31.868Z,20.65
2022-08-23T21:51:38.298Z,20.53
2022-08-23T21:54:43.607Z,20.57
2022-08-23T21:57:48.534Z,20.42
2022-08-23T22:00:51.841Z,20.36
2022-08-23T22:03:57.108Z,20.30
2022-08-23T22:07:00.986Z,20.19
2022-08-23T22:10:07.358Z,20.15
2022-08-23T22:13:11.661Z,20.16
2022-08-23T22:16:14.785Z,20.14
2022-08-23T22:19:19.739Z,20.07
2022-08-23T22:22:24.961Z,20.05
2022-08-23T22:25:28.323Z,20.04
2022-08-23T22:28:34.126Z,19.93
2022-08-23T22:31:39.385Z,19.93
2022-08-23T22:34:42.431Z,19.89
2022-08-23T22:38:03.682Z,19.87
2022-08-23T22:41:09.224Z,19.84
2022-08-23T22:44:13.769Z,19.75
2022-08-23T22:47:16.751Z,19.74
2022-08-23T22:50:19.774Z,19.60
2022-08-23T22:53:23.727Z,19.68
2022-08-23T22:56:30.310Z,19.70
2022-08-23T22:59:34.683Z,19.67
2022-08-23T23:02:38.939Z,19.60
2022-08-23T23:05:43.661Z,19.61
2022-08-23T23:08:46.754Z,19.64
2022-08-23T23:11:50.054Z,19.60
2022-08-23T23:14:54.339Z,19.59
2022-08-23T23:17:59.741Z,19.55
2022-08-23T23:21:04.997Z,19.45
2022-08-23T23:24:09.311Z,19.46
2022-08-23T23:27:12.305Z,19.44
2022-08-23T23:30:16.690Z,19.38
2022-08-23T23:33:23.685Z,19.34
2022-08-23T23:36:26.810Z,19.31
2022-08-23T23:39:29.942Z,19.33
2022-08-23T23:42:33.004Z,19.29
2022-08-23T23:45:38.179Z,19.25
2022-08-23T23:48:43.534Z,19.20
2022-08-23T23:51:46.532Z,19.18
2022-08-23T23:54:49.861Z,19.17
2022-08-23T23:57:53.289Z,19.16
